Time;durP1;ratioP1;P1;durP2;ratioP2;P2;SDS_P1;SDS_P2;PMS_P1;PMS_P2;Temp;Humidity;BMP_temperature;BMP_pressure;BME280_temperature;BME280_humidity;BME280_pressure;Samples;Min_cycle;Max_cycle;Signal;HPM_P1;HPM_P2
2021/04/21 00:00:26;;;;;;;9.77;4.28;;;8.00;99.90;;;;;;5024614;28;20840;-74
2021/04/21 00:02:53;;;;;;;8.30;4.50;;;7.90;99.90;;;;;;5012608;28;20459;-74
2021/04/21 00:05:21;;;;;;;7.25;4.10;;;7.70;99.90;;;;;;5017019;28;20025;-74
2021/04/21 00:07:48;;;;;;;11.52;4.47;;;7.60;99.90;;;;;;5024580;28;20434;-74
2021/04/21 00:10:14;;;;;;;8.68;4.90;;;7.50;99.90;;;;;;5022185;28;20040;-74
2021/04/21 00:12:41;;;;;;;9.15;4.18;;;7.50;99.90;;;;;;5014201;28;20034;-74
2021/04/21 00:15:15;;;;;;;8.40;4.40;;;7.60;99.90;;;;;;5014551;28;20088;-74
2021/04/21 00:17:45;;;;;;;6.22;4.32;;;7.60;99.90;;;;;;5016666;28;20274;-74
2021/04/21 00:20:12;;;;;;;8.75;4.60;;;7.60;99.90;;;;;;5010637;28;20033;-75
2021/04/21 00:22:39;;;;;;;8.82;4.35;;;7.60;99.90;;;;;;5025442;28;20540;-74
2021/04/21 00:25:06;;;;;;;9.63;4.63;;;7.60;99.90;;;;;;5023901;28;20034;-74
2021/04/21 00:27:33;;;;;;;8.27;4.28;;;7.60;99.90;;;;;;5013580;28;20488;-74
2021/04/21 00:30:06;;;;;;;6.53;4.43;;;7.50;99.90;;;;;;5026227;28;20128;-75
2021/04/21 00:32:40;;;;;;;11.68;5.22;;;7.50;99.90;;;;;;5013148;28;20037;-74
2021/04/21 00:35:06;;;;;;;8.77;4.80;;;7.40;99.90;;;;;;5027214;28;20127;-74
2021/04/21 00:37:32;;;;;;;8.95;4.57;;;7.30;99.90;;;;;;5022267;28;20033;-74
2021/04/21 00:39:59;;;;;;;9.43;4.72;;;7.30;99.90;;;;;;5012263;28;20029;-74
2021/04/21 00:42:46;;;;;;;9.57;4.18;;;7.10;99.90;;;;;;5023060;28;20037;-74
2021/04/21 00:45:18;;;;;;;12.90;4.50;;;7.20;99.90;;;;;;5024579;28;20152;-74
2021/04/21 00:48:04;;;;;;;8.70;4.32;;;7.30;99.90;;;;;;5012843;28;20034;-74
2021/04/21 00:50:43;;;;;;;11.90;4.30;;;7.30;99.90;;;;;;5021098;28;20088;-74
2021/04/21 00:53:16;;;;;;;7.72;4.00;;;7.40;99.90;;;;;;5021036;28;20034;-74
2021/04/21 00:56:11;;;;;;;11.70;4.57;;;7.20;99.90;;;;;;5020728;28;20566;-74
2021/04/21 00:59:05;;;;;;;11.93;5.00;;;7.10;99.90;;;;;;5019365;28;20053;-74
2021/04/21 01:01:33;;;;;;;7.88;4.25;;;7.00;99.90;;;;;;5024767;28;20438;-74
2021/04/21 01:03:58;;;;;;;8.43;4.35;;;7.10;99.90;;;;;;5017422;28;20022;-74
2021/04/21 01:06:32;;;;;;;8.65;5.00;;;7.20;99.90;;;;;;5014347;28;20029;-74
2021/04/21 01:09:00;;;;;;;12.23;5.03;;;7.10;99.90;;;;;;5020855;28;20484;-74
2021/04/21 01:11:33;;;;;;;11.23;4.70;;;7.10;99.90;;;;;;5013293;28;20124;-74
2021/04/21 01:14:07;;;;;;;9.95;4.55;;;7.20;99.90;;;;;;5014513;28;20171;-74
2021/04/21 01:16:34;;;;;;;10.05;5.20;;;7.20;99.90;;;;;;5018982;28;20088;-74
2021/04/21 01:19:07;;;;;;;7.22;4.15;;;7.30;99.90;;;;;;5021155;28;20037;-74
2021/04/21 01:21:47;;;;;;;9.07;4.95;;;7.20;99.90;;;;;;5019953;28;20087;-74
2021/04/21 01:24:20;;;;;;;14.38;4.70;;;7.20;99.90;;;;;;5021121;28;20246;-74
2021/04/21 01:27:17;;;;;;;10.57;4.60;;;7.00;99.90;;;;;;5014305;28;20646;-74
2021/04/21 01:29:46;;;;;;;10.82;4.22;;;7.00;99.90;;;;;;5010804;28;20046;-74
2021/04/21 01:32:17;;;;;;;6.03;4.20;;;7.00;99.90;;;;;;5015955;28;20034;-74
2021/04/21 01:34:45;;;;;;;11.07;4.43;;;7.00;99.90;;;;;;5018798;28;20025;-74
2021/04/21 01:37:13;;;;;;;6.65;4.55;;;6.90;99.90;;;;;;5028680;28;20029;-74
2021/04/21 01:39:44;;;;;;;9.52;3.95;;;6.90;99.90;;;;;;5031143;28;20060;-74
2021/04/21 01:42:13;;;;;;;13.73;4.80;;;6.80;99.90;;;;;;5025896;28;20044;-74
2021/04/21 01:44:42;;;;;;;9.43;4.35;;;6.70;99.90;;;;;;5024810;28;20492;-74
2021/04/21 01:47:21;;;;;;;7.30;5.10;;;6.70;99.90;;;;;;5017987;28;20037;-74
2021/04/21 01:50:03;;;;;;;12.80;4.22;;;6.60;99.90;;;;;;5018094;28;20042;-74
2021/04/21 01:52:38;;;;;;;8.63;4.35;;;6.60;99.90;;;;;;5021776;28;20033;-73
2021/04/21 01:55:43;;;;;;;10.73;4.38;;;6.70;99.90;;;;;;5017493;28;20108;-74
2021/04/21 01:58:30;;;;;;;8.77;4.05;;;6.60;99.90;;;;;;5022613;28;20053;-74
2021/04/21 02:01:10;;;;;;;11.25;4.30;;;6.60;99.90;;;;;;5026335;28;20056;-74
2021/04/21 02:03:41;;;;;;;18.02;5.00;;;6.60;99.90;;;;;;5014754;28;20038;-73
2021/04/21 02:06:33;;;;;;;12.18;4.68;;;6.60;99.90;;;;;;5024656;28;20372;-74
2021/04/21 02:09:15;;;;;;;12.50;5.18;;;6.60;99.90;;;;;;5020001;28;20101;-73
2021/04/21 02:11:53;;;;;;;15.57;4.80;;;6.50;99.90;;;;;;5028318;28;20125;-74
2021/04/21 02:14:48;;;;;;;6.72;4.38;;;6.60;99.90;;;;;;5023525;28;20116;-74
2021/04/21 02:17:24;;;;;;;10.90;4.28;;;6.60;99.90;;;;;;5021283;28;20038;-73
2021/04/21 02:20:15;;;;;;;13.13;4.38;;;6.50;99.90;;;;;;5018291;28;20030;-73
2021/04/21 02:22:51;;;;;;;12.23;4.72;;;6.70;99.90;;;;;;5023854;28;20057;-73
2021/04/21 02:25:45;;;;;;;10.93;4.85;;;6.60;99.90;;;;;;5028073;28;20475;-74
2021/04/21 02:28:33;;;;;;;7.18;3.97;;;6.70;99.90;;;;;;5025128;28;20061;-74
2021/04/21 02:31:23;;;;;;;7.50;4.60;;;6.70;99.90;;;;;;5018682;28;20033;-73
2021/04/21 02:33:59;;;;;;;14.70;4.63;;;6.60;99.90;;;;;;5021363;28;20036;-74
2021/04/21 02:36:36;;;;;;;8.93;4.70;;;6.50;99.90;;;;;;5021302;28;20476;-73
2021/04/21 02:39:14;;;;;;;12.30;4.72;;;6.50;99.90;;;;;;5025079;28;20036;-74
2021/04/21 02:42:10;;;;;;;9.18;4.57;;;6.40;99.90;;;;;;5021971;28;20026;-74
2021/04/21 02:44:45;;;;;;;8.13;4.80;;;6.50;99.90;;;;;;5021544;28;20022;-74
2021/04/21 02:47:21;;;;;;;8.63;4.90;;;6.50;99.90;;;;;;5014090;28;20026;-73
2021/04/21 02:50:15;;;;;;;12.02;4.85;;;6.40;99.90;;;;;;5022757;28;20129;-73
2021/04/21 02:53:06;;;;;;;10.70;4.57;;;6.40;99.90;;;;;;5026480;28;20037;-73
2021/04/21 02:56:00;;;;;;;10.25;4.68;;;6.40;99.90;;;;;;5025585;28;20550;-73
2021/04/21 02:58:45;;;;;;;9.68;4.68;;;6.30;99.90;;;;;;5017059;28;20104;-73
2021/04/21 03:01:25;;;;;;;10.55;5.43;;;6.30;99.90;;;;;;5021564;28;20034;-73
2021/04/21 03:04:18;;;;;;;13.35;5.03;;;6.40;99.90;;;;;;5015266;28;20585;-73
2021/04/21 03:06:48;;;;;;;11.57;5.05;;;6.30;99.90;;;;;;5018970;28;20029;-73
2021/04/21 03:09:18;;;;;;;10.07;4.60;;;6.40;99.90;;;;;;5019607;28;20026;-73
2021/04/21 03:11:46;;;;;;;9.48;4.50;;;6.30;99.90;;;;;;5019992;28;20783;-73
2021/04/21 03:14:18;;;;;;;11.05;4.88;;;6.30;99.90;;;;;;5020850;28;20131;-73
2021/04/21 03:16:47;;;;;;;13.10;4.57;;;6.40;99.90;;;;;;5022597;28;20026;-73
2021/04/21 03:19:15;;;;;;;6.90;4.55;;;6.30;99.90;;;;;;5026856;28;20018;-73
2021/04/21 03:21:44;;;;;;;7.28;4.53;;;6.20;99.90;;;;;;5021498;28;22006;-73
2021/04/21 03:24:14;;;;;;;13.98;5.45;;;6.20;99.90;;;;;;5021313;28;20025;-74
2021/04/21 03:26:43;;;;;;;10.50;4.47;;;6.30;99.90;;;;;;5024143;28;20498;-73
2021/04/21 03:29:15;;;;;;;8.57;5.00;;;6.40;99.90;;;;;;5024988;28;20022;-73
2021/04/21 03:31:44;;;;;;;9.30;5.00;;;6.50;99.90;;;;;;5019285;28;20033;-74
2021/04/21 03:34:14;;;;;;;8.88;4.65;;;6.50;99.90;;;;;;5025089;28;20112;-73
2021/04/21 03:36:44;;;;;;;8.18;4.22;;;6.50;99.90;;;;;;5019418;28;20026;-74
2021/04/21 03:39:11;;;;;;;9.80;4.68;;;6.60;99.90;;;;;;5021501;28;20036;-74
2021/04/21 03:41:37;;;;;;;10.63;4.55;;;6.60;99.90;;;;;;5022079;28;20022;-74
2021/04/21 03:44:05;;;;;;;8.32;4.15;;;6.50;99.90;;;;;;5021223;28;20072;-73
2021/04/21 03:46:32;;;;;;;9.43;4.60;;;6.50;99.90;;;;;;5013613;28;20060;-74
2021/04/21 03:48:59;;;;;;;13.68;5.05;;;6.50;99.90;;;;;;5005396;28;20616;-73
2021/04/21 03:51:25;;;;;;;10.18;4.25;;;6.50;99.90;;;;;;5023533;28;20048;-73
2021/04/21 03:53:52;;;;;;;10.70;4.80;;;6.50;99.90;;;;;;5017640;28;20022;-73
2021/04/21 03:56:26;;;;;;;11.40;4.95;;;6.70;99.90;;;;;;5017562;28;20084;-74
2021/04/21 03:58:54;;;;;;;9.93;4.85;;;6.50;99.90;;;;;;5021634;28;20120;-74
2021/04/21 04:01:22;;;;;;;13.88;4.60;;;6.30;99.90;;;;;;5027441;28;20036;-74
2021/04/21 04:03:51;;;;;;;8.93;4.07;;;6.20;99.90;;;;;;5020889;28;20387;-74
2021/04/21 04:06:20;;;;;;;11.43;4.45;;;6.40;99.90;;;;;;5021056;28;20529;-73
2021/04/21 04:08:57;;;;;;;12.98;5.00;;;6.30;99.90;;;;;;5019407;28;20117;-73
2021/04/21 04:11:27;;;;;;;8.82;4.93;;;6.30;99.90;;;;;;5021264;28;20025;-73
2021/04/21 04:14:00;;;;;;;7.97;4.53;;;6.40;99.90;;;;;;5021613;28;20141;-73
2021/04/21 04:16:29;;;;;;;10.85;4.90;;;6.60;99.90;;;;;;5018626;28;20228;-73
2021/04/21 04:18:56;;;;;;;12.45;4.95;;;6.50;99.90;;;;;;5022080;28;20045;-73
2021/04/21 04:21:37;;;;;;;12.10;5.18;;;6.70;99.90;;;;;;5012978;28;20033;-74
2021/04/21 04:24:07;;;;;;;11.02;4.78;;;6.80;99.90;;;;;;5023233;28;20057;-73
2021/04/21 04:26:35;;;;;;;12.20;4.82;;;6.90;99.90;;;;;;5020662;28;20029;-74
2021/04/21 04:29:02;;;;;;;10.43;4.68;;;6.90;99.90;;;;;;5026811;28;20030;-73
2021/04/21 04:31:29;;;;;;;9.95;5.10;;;6.90;99.90;;;;;;5022649;28;20244;-73
2021/04/21 04:33:57;;;;;;;8.63;4.60;;;6.80;99.90;;;;;;5018316;28;20030;-74
2021/04/21 04:36:24;;;;;;;11.18;4.90;;;6.70;99.90;;;;;;5014545;28;20535;-74
2021/04/21 04:38:50;;;;;;;9.25;4.53;;;6.80;99.90;;;;;;5016090;28;20655;-74
2021/04/21 04:41:16;;;;;;;8.90;4.50;;;6.80;99.90;;;;;;5025428;28;20030;-74
2021/04/21 04:43:42;;;;;;;10.93;4.60;;;6.80;99.90;;;;;;5015374;28;20028;-74
2021/04/21 04:46:11;;;;;;;7.25;4.30;;;7.00;99.90;;;;;;5019470;28;20029;-74
2021/04/21 04:48:43;;;;;;;12.95;4.50;;;7.00;99.90;;;;;;5016274;28;20100;-74
2021/04/21 04:51:10;;;;;;;12.05;5.13;;;6.80;99.90;;;;;;5016457;28;20064;-74
2021/04/21 04:53:38;;;;;;;17.80;5.13;;;6.90;99.90;;;;;;5020848;28;20104;-74
2021/04/21 04:56:06;;;;;;;10.63;4.60;;;7.00;99.90;;;;;;5017725;28;20034;-74
2021/04/21 04:58:33;;;;;;;15.07;4.90;;;7.20;99.90;;;;;;5019967;28;20029;-74
2021/04/21 05:01:07;;;;;;;11.98;5.10;;;7.30;99.90;;;;;;5020884;28;20574;-74
2021/04/21 05:03:50;;;;;;;10.43;5.20;;;7.40;99.90;;;;;;5015236;28;20483;-74
2021/04/21 05:06:22;;;;;;;7.88;4.68;;;7.50;99.90;;;;;;5017136;28;20034;-74
2021/04/21 05:08:51;;;;;;;14.52;4.75;;;7.50;99.90;;;;;;5016768;28;20029;-74
2021/04/21 05:11:21;;;;;;;7.90;4.50;;;7.60;99.90;;;;;;5012967;28;20061;-74
2021/04/21 05:13:48;;;;;;;16.38;4.90;;;7.50;99.90;;;;;;5018863;28;20041;-74
2021/04/21 05:16:28;;;;;;;19.05;5.28;;;7.60;99.90;;;;;;5015785;28;20087;-74
2021/04/21 05:19:18;;;;;;;7.85;4.65;;;7.60;99.70;;;;;;5023425;28;20107;-73
2021/04/21 05:22:09;;;;;;;8.52;4.68;;;7.60;99.60;;;;;;5016321;28;20534;-73
2021/04/21 05:24:52;;;;;;;10.80;5.68;;;7.60;99.90;;;;;;5016377;28;20029;-75
2021/04/21 05:27:50;;;;;;;11.50;4.85;;;7.70;99.10;;;;;;5014836;28;20362;-74
2021/04/21 05:30:48;;;;;;;7.53;4.70;;;7.80;98.10;;;;;;5020064;28;20115;-73
2021/04/21 05:34:19;;;;;;;16.38;5.35;;;7.90;97.60;;;;;;5023860;28;20026;-74
2021/04/21 05:37:08;;;;;;;9.47;4.93;;;8.00;97.00;;;;;;5013109;28;20088;-74
2021/04/21 05:39:42;;;;;;;13.30;5.10;;;8.20;96.20;;;;;;5019452;28;20033;-74
2021/04/21 05:42:59;;;;;;;;;;;;;;;;;;;;;
2021/04/21 05:46:02;;;;;;;7.75;5.05;;;8.30;95.80;;;;;;5010491;28;20029;-74
2021/04/21 05:48:49;;;;;;;12.93;5.88;;;8.30;96.10;;;;;;5022417;28;20570;-74
2021/04/21 05:51:38;;;;;;;13.23;5.25;;;8.40;95.60;;;;;;5017025;28;20122;-75
2021/04/21 05:54:44;;;;;;;12.88;5.40;;;8.50;95.20;;;;;;5014245;28;20034;-74
2021/04/21 05:57:45;;;;;;;10.50;5.07;;;8.50;94.70;;;;;;5010442;28;20076;-74
2021/04/21 06:00:19;;;;;;;15.23;5.93;;;8.50;94.40;;;;;;5018768;28;20038;-75
2021/04/21 06:02:46;;;;;;;20.98;6.65;;;8.60;95.30;;;;;;5018695;28;20032;-74
2021/04/21 06:05:14;;;;;;;12.10;5.82;;;8.60;94.40;;;;;;5020904;28;20093;-74
2021/04/21 06:07:43;;;;;;;12.52;6.00;;;8.60;93.80;;;;;;5024063;28;20044;-74
2021/04/21 06:10:30;;;;;;;10.70;5.50;;;8.70;93.80;;;;;;5009786;28;20029;-73
2021/04/21 06:13:00;;;;;;;9.27;5.28;;;8.80;95.00;;;;;;5011622;28;20663;-74
2021/04/21 06:15:33;;;;;;;9.23;4.80;;;8.90;92.90;;;;;;5017380;28;20029;-74
2021/04/21 06:18:02;;;;;;;11.40;5.13;;;8.90;92.70;;;;;;5019128;28;20637;-74
2021/04/21 06:20:46;;;;;;;9.27;5.68;;;9.00;92.70;;;;;;5018983;28;20032;-73
2021/04/21 06:23:13;;;;;;;10.68;5.60;;;9.00;92.50;;;;;;5019513;28;20087;-74
2021/04/21 06:25:41;;;;;;;10.82;5.47;;;9.10;91.80;;;;;;5015557;28;20112;-74
2021/04/21 06:28:07;;;;;;;14.30;5.85;;;9.20;91.00;;;;;;5025098;28;20119;-75
2021/04/21 06:30:32;;;;;;;11.05;5.68;;;9.30;90.90;;;;;;5015528;28;20053;-73
2021/04/21 06:33:05;;;;;;;12.65;5.55;;;9.30;90.70;;;;;;5013295;28;20041;-74
2021/04/21 06:35:31;;;;;;;11.77;5.95;;;9.40;90.20;;;;;;5016499;28;20490;-74
2021/04/21 06:37:57;;;;;;;12.77;5.30;;;9.50;90.20;;;;;;5028275;28;20048;-73
2021/04/21 06:40:31;;;;;;;13.35;5.85;;;9.50;90.00;;;;;;5027964;28;20028;-74
2021/04/21 06:42:58;;;;;;;10.73;5.75;;;9.60;88.30;;;;;;5022140;28;20670;-74
2021/04/21 06:45:28;;;;;;;11.50;5.10;;;9.70;87.80;;;;;;5025385;28;20368;-74
2021/04/21 06:47:55;;;;;;;10.95;5.68;;;9.80;88.00;;;;;;5015128;28;20033;-74
2021/04/21 06:50:28;;;;;;;12.10;5.03;;;9.80;86.00;;;;;;5026523;28;20091;-75
2021/04/21 06:52:58;;;;;;;12.45;5.10;;;9.90;85.70;;;;;;5020999;28;20563;-74
2021/04/21 06:55:23;;;;;;;8.15;5.55;;;10.00;85.20;;;;;;5023034;28;20029;-73
2021/04/21 06:57:49;;;;;;;12.60;4.72;;;10.00;84.90;;;;;;5023598;28;20506;-74
2021/04/21 07:00:23;;;;;;;7.65;5.03;;;10.10;84.20;;;;;;5019624;28;20380;-74
2021/04/21 07:02:51;;;;;;;10.10;5.32;;;10.20;82.90;;;;;;5013227;28;20074;-74
2021/04/21 07:05:39;;;;;;;10.25;4.43;;;10.20;81.30;;;;;;5014053;28;20025;-74
2021/04/21 07:08:10;;;;;;;12.52;4.55;;;10.30;79.60;;;;;;5017295;28;20103;-75
2021/04/21 07:10:48;;;;;;;10.65;4.93;;;10.30;78.60;;;;;;5027485;28;20025;-75
2021/04/21 07:13:29;;;;;;;9.48;4.15;;;10.40;78.10;;;;;;5028844;28;20045;-75
2021/04/21 07:15:57;;;;;;;12.05;4.20;;;10.50;76.10;;;;;;5025171;28;20549;-74
2021/04/21 07:18:27;;;;;;;9.13;4.70;;;10.60;76.70;;;;;;5019388;28;20030;-74
2021/04/21 07:20:55;;;;;;;10.73;4.32;;;10.70;77.20;;;;;;5026762;28;20037;-74
2021/04/21 07:23:22;;;;;;;9.13;4.93;;;10.70;76.20;;;;;;5016106;28;20036;-74
2021/04/21 07:25:50;;;;;;;6.25;4.20;;;10.90;72.90;;;;;;5024935;28;20052;-75
2021/04/21 07:28:17;;;;;;;10.07;4.50;;;10.90;72.40;;;;;;5021467;28;20100;-74
2021/04/21 07:30:43;;;;;;;11.88;5.13;;;11.00;71.40;;;;;;5023267;28;20676;-74
2021/04/21 07:33:09;;;;;;;8.10;4.53;;;11.20;71.80;;;;;;5015775;28;20033;-74
2021/04/21 07:35:35;;;;;;;7.05;4.80;;;11.30;71.40;;;;;;5022303;28;20083;-74
2021/04/21 07:38:01;;;;;;;9.75;4.90;;;11.30;68.90;;;;;;5015637;28;20511;-77
2021/04/21 07:40:30;;;;;;;7.38;4.05;;;11.40;69.00;;;;;;5015107;28;20741;-74
2021/04/21 07:43:18;;;;;;;10.55;4.40;;;11.50;70.50;;;;;;5023712;28;20707;-77
2021/04/21 07:45:48;;;;;;;7.63;4.07;;;11.60;69.10;;;;;;5017421;28;20080;-74
2021/04/21 07:48:32;;;;;;;9.10;4.32;;;11.70;68.60;;;;;;5020474;28;20464;-75
2021/04/21 07:50:58;;;;;;;6.75;4.25;;;11.80;67.00;;;;;;5011109;28;20054;-75
2021/04/21 07:53:23;;;;;;;10.23;4.72;;;11.80;67.10;;;;;;5010030;28;20030;-73
2021/04/21 07:56:01;;;;;;;8.68;4.63;;;11.90;65.90;;;;;;5012513;28;20025;-74
2021/04/21 07:58:27;;;;;;;11.18;5.00;;;11.90;66.00;;;;;;5022633;28;20029;-75
2021/04/21 08:00:52;;;;;;;7.22;4.10;;;12.00;64.90;;;;;;5024486;28;20403;-71
2021/04/21 08:03:25;;;;;;;10.20;4.75;;;12.20;63.90;;;;;;5012072;28;20034;-71
2021/04/21 08:05:54;;;;;;;9.25;4.35;;;12.20;63.30;;;;;;5017307;28;20131;-71
2021/04/21 08:08:34;;;;;;;10.00;5.00;;;12.30;62.50;;;;;;5021913;28;20029;-71
2021/04/21 08:11:01;;;;;;;8.70;4.93;;;12.40;63.50;;;;;;5009222;28;20029;-71
2021/04/21 08:13:41;;;;;;;10.38;4.57;;;12.40;62.00;;;;;;5014782;28;20524;-70
2021/04/21 08:16:29;;;;;;;11.45;4.40;;;12.50;61.90;;;;;;5020290;28;20088;-70
2021/04/21 08:18:54;;;;;;;8.45;4.90;;;12.60;61.00;;;;;;5022521;28;20574;-72
2021/04/21 08:21:33;;;;;;;7.25;4.38;;;12.70;60.10;;;;;;5018469;28;20033;-72
2021/04/21 08:24:04;;;;;;;7.35;4.22;;;12.80;60.30;;;;;;5022598;28;20060;-71
2021/04/21 08:26:31;;;;;;;10.45;4.95;;;12.90;60.60;;;;;;5014753;28;20037;-71
2021/04/21 08:28:56;;;;;;;12.30;4.53;;;13.00;60.90;;;;;;5019595;28;20026;-72
2021/04/21 08:31:26;;;;;;;7.53;4.35;;;13.10;62.10;;;;;;5022795;28;20396;-72
2021/04/21 08:33:52;;;;;;;9.45;4.03;;;13.20;60.60;;;;;;5019591;28;20383;-72
2021/04/21 08:36:19;;;;;;;10.57;4.45;;;13.40;61.80;;;;;;5021788;28;20025;-74
2021/04/21 08:38:47;;;;;;;8.93;4.43;;;13.40;60.50;;;;;;5012217;28;20041;-75
2021/04/21 08:41:17;;;;;;;8.93;4.65;;;13.40;58.30;;;;;;5026192;28;20044;-75
2021/04/21 08:43:47;;;;;;;8.77;4.40;;;13.50;58.10;;;;;;5020557;28;20060;-73
2021/04/21 08:46:14;;;;;;;8.57;4.15;;;13.60;58.50;;;;;;5019690;28;20025;-74
2021/04/21 08:48:42;;;;;;;6.93;4.10;;;13.70;58.10;;;;;;5012678;28;20038;-75
2021/04/21 08:51:10;;;;;;;8.63;4.22;;;13.80;57.40;;;;;;5015860;28;20069;-75
2021/04/21 08:53:38;;;;;;;6.57;4.50;;;13.80;57.30;;;;;;5019622;28;20034;-76
2021/04/21 08:56:06;;;;;;;7.43;4.97;;;13.90;57.30;;;;;;5023176;28;20052;-75
2021/04/21 08:58:35;;;;;;;6.88;4.63;;;13.90;57.50;;;;;;5018032;28;20053;-77
2021/04/21 09:01:01;;;;;;;9.20;4.80;;;14.00;57.80;;;;;;5009186;28;20040;-76
2021/04/21 09:03:27;;;;;;;8.05;4.60;;;14.10;59.40;;;;;;5012273;28;20030;-75
2021/04/21 09:05:53;;;;;;;6.72;4.60;;;14.30;57.90;;;;;;5021363;28;20022;-75
2021/04/21 09:08:20;;;;;;;10.02;5.55;;;14.30;58.10;;;;;;5016477;28;20833;-75
2021/04/21 09:10:47;;;;;;;9.93;5.45;;;14.40;56.80;;;;;;5018965;28;22324;-75
2021/04/21 09:13:14;;;;;;;11.38;5.63;;;14.40;57.60;;;;;;5015870;28;20836;-73
2021/04/21 09:15:39;;;;;;;16.13;5.20;;;14.50;55.90;;;;;;5015115;28;20272;-75
2021/04/21 09:18:05;;;;;;;10.35;5.53;;;14.60;57.60;;;;;;5011623;28;20392;-73
2021/04/21 09:20:31;;;;;;;16.85;6.40;;;14.70;55.40;;;;;;5012895;28;20041;-72
2021/04/21 09:23:00;;;;;;;10.15;4.93;;;14.60;54.80;;;;;;5021699;28;20057;-75
2021/04/21 09:25:40;;;;;;;9.90;5.05;;;14.70;55.70;;;;;;5016850;28;20022;-77
2021/04/21 09:28:10;;;;;;;12.07;5.85;;;14.80;54.60;;;;;;5010709;28;20037;-75
2021/04/21 09:30:37;;;;;;;11.32;4.93;;;15.00;55.70;;;;;;5006194;28;20140;-75
2021/04/21 09:33:15;;;;;;;11.48;5.10;;;15.10;54.10;;;;;;5021767;28;20021;-75
2021/04/21 09:35:43;;;;;;;9.57;5.05;;;15.10;53.20;;;;;;5018107;28;20037;-76
2021/04/21 09:38:17;;;;;;;7.30;4.85;;;15.20;53.20;;;;;;5020853;28;20049;-76
2021/04/21 09:40:53;;;;;;;8.45;4.80;;;15.20;53.20;;;;;;5020947;28;20037;-76
2021/04/21 09:43:28;;;;;;;7.30;4.47;;;15.20;51.80;;;;;;5026915;28;20053;-75
2021/04/21 09:45:59;;;;;;;8.90;5.32;;;15.20;52.00;;;;;;5020041;28;20668;-75
2021/04/21 09:48:31;;;;;;;11.60;4.78;;;15.20;52.00;;;;;;5022103;28;20495;-75
2021/04/21 09:51:11;;;;;;;6.97;4.55;;;15.30;53.10;;;;;;5012272;28;20070;-75
2021/04/21 09:53:47;;;;;;;6.55;4.72;;;15.40;51.10;;;;;;5018226;28;20034;-75
2021/04/21 09:56:20;;;;;;;9.27;5.30;;;15.50;51.60;;;;;;5026215;28;20036;-75
2021/04/21 09:58:51;;;;;;;9.77;5.22;;;15.50;51.60;;;;;;5018051;28;20037;-75
2021/04/21 10:01:32;;;;;;;6.95;4.88;;;15.60;51.70;;;;;;5024343;28;20052;-76
2021/04/21 10:04:06;;;;;;;7.77;5.00;;;15.60;52.60;;;;;;5028050;28;20104;-76
2021/04/21 10:06:59;;;;;;;10.40;4.75;;;15.80;52.10;;;;;;5027023;28;20038;-75
2021/04/21 10:09:38;;;;;;;10.93;4.72;;;15.90;56.00;;;;;;5020276;28;20108;-75
2021/04/21 10:12:22;;;;;;;8.88;4.82;;;16.00;52.40;;;;;;5020143;28;20029;-74
2021/04/21 10:15:10;;;;;;;10.43;4.50;;;16.00;51.00;;;;;;5007550;28;20392;-73
2021/04/21 10:17:40;;;;;;;11.32;4.68;;;16.00;51.00;;;;;;5002669;28;20053;-76
2021/04/21 10:20:22;;;;;;;11.10;4.50;;;16.10;51.00;;;;;;5031000;28;20033;-76
2021/04/21 10:22:48;;;;;;;14.02;4.93;;;16.20;50.10;;;;;;5029229;28;20472;-75
2021/04/21 10:25:15;;;;;;;13.32;4.28;;;16.40;50.10;;;;;;5030331;28;20052;-75
2021/04/21 10:27:41;;;;;;;9.43;4.55;;;16.60;49.10;;;;;;5023337;28;20096;-74
2021/04/21 10:30:08;;;;;;;11.27;4.47;;;16.70;48.70;;;;;;5026921;28;20029;-74
2021/04/21 10:32:35;;;;;;;8.27;4.22;;;16.90;47.60;;;;;;5031343;28;20053;-73
2021/04/21 10:35:00;;;;;;;6.95;4.20;;;17.10;48.50;;;;;;5023464;28;20030;-74
2021/04/21 10:37:27;;;;;;;6.53;4.10;;;17.40;49.80;;;;;;5022733;28;20030;-74
2021/04/21 10:39:54;;;;;;;11.27;4.82;;;17.60;47.00;;;;;;5024804;28;20037;-74
2021/04/21 10:42:21;;;;;;;8.13;3.95;;;17.80;47.70;;;;;;5023691;28;20041;-73
2021/04/21 10:44:49;;;;;;;6.05;3.97;;;17.90;47.00;;;;;;5025685;28;20026;-74
2021/04/21 10:47:25;;;;;;;7.88;3.70;;;17.70;47.50;;;;;;5025941;28;20082;-73
2021/04/21 10:50:09;;;;;;;9.80;3.97;;;17.40;47.90;;;;;;5031446;28;20100;-74
2021/04/21 10:52:40;;;;;;;10.93;4.53;;;17.30;50.30;;;;;;5022728;28;20041;-73
2021/04/21 10:55:10;;;;;;;8.45;4.10;;;17.10;48.00;;;;;;5022282;28;20033;-74
2021/04/21 10:57:41;;;;;;;7.45;3.67;;;16.90;48.20;;;;;;5011955;28;20141;-73
2021/04/21 11:00:10;;;;;;;;;;;17.20;46.70;;;;;;5013983;28;20108;-73
2021/04/21 11:02:45;;;;;;;5.95;3.88;;;18.00;49.10;;;;;;5020744;28;19983;-73
2021/04/21 11:05:19;;;;;;;8.40;3.92;;;18.50;44.80;;;;;;5011284;28;20021;-73
2021/04/21 11:08:00;;;;;;;6.45;3.85;;;18.30;45.30;;;;;;5025067;28;20021;-74
2021/04/21 11:10:50;;;;;;;9.52;3.65;;;18.30;45.80;;;;;;5011399;28;20069;-73
2021/04/21 11:13:34;;;;;;;6.95;3.95;;;18.60;43.60;;;;;;5024012;28;20108;-74
2021/04/21 11:16:00;;;;;;;10.82;3.80;;;18.90;43.10;;;;;;5020685;28;20459;-74
2021/04/21 11:18:30;;;;;;;9.10;3.42;;;18.80;42.60;;;;;;5016273;28;20025;-75
2021/04/21 11:21:07;;;;;;;8.48;3.38;;;19.30;42.20;;;;;;5023072;28;20030;-74
2021/04/21 11:23:56;;;;;;;6.57;4.20;;;19.50;41.80;;;;;;5014152;28;20030;-74
2021/04/21 11:26:30;;;;;;;6.20;3.63;;;19.50;40.40;;;;;;5019657;28;20032;-74
2021/04/21 11:29:04;;;;;;;7.82;3.70;;;19.90;41.90;;;;;;5024017;28;20432;-73
2021/04/21 11:31:53;;;;;;;8.70;3.83;;;20.50;42.70;;;;;;5026982;28;20021;-74
2021/04/21 11:34:20;;;;;;;6.25;3.88;;;20.80;38.80;;;;;;5024947;28;20021;-74
2021/04/21 11:36:55;;;;;;;4.03;2.78;;;21.20;40.30;;;;;;5025809;28;20037;-74
2021/04/21 11:39:39;;;;;;;8.52;3.08;;;21.70;41.80;;;;;;5027079;28;20033;-73
2021/04/21 11:42:40;;;;;;;5.38;3.30;;;21.60;37.80;;;;;;5024637;28;20021;-73
2021/04/21 11:45:21;;;;;;;5.85;3.60;;;20.80;39.40;;;;;;5021439;28;20033;-73
2021/04/21 11:47:47;;;;;;;;;;;20.10;41.50;;;;;;5026174;28;20052;-74
2021/04/21 11:50:21;;;;;;;6.75;2.88;;;20.40;41.20;;;;;;5026610;28;19944;-74
2021/04/21 11:53:02;;;;;;;6.30;3.30;;;19.80;39.20;;;;;;5022696;28;20035;-74
2021/04/21 11:55:45;;;;;;;6.78;3.13;;;20.00;38.00;;;;;;5022486;28;20030;-74
2021/04/21 11:58:31;;;;;;;5.75;3.17;;;20.60;39.60;;;;;;5020771;28;20038;-74
2021/04/21 12:00:57;;;;;;;5.05;3.65;;;21.80;38.60;;;;;;5029043;28;20037;-73
2021/04/21 12:03:27;;;;;;;10.10;3.90;;;22.50;36.40;;;;;;5026660;28;20025;-74
2021/04/21 12:05:58;;;;;;;4.05;2.85;;;23.00;36.60;;;;;;5016056;28;20388;-73
2021/04/21 12:08:27;;;;;;;;;;;23.50;37.40;;;;;;5020850;28;20549;-75
2021/04/21 12:10:55;;;;;;;11.15;3.85;;;24.20;34.40;;;;;;5019836;28;19913;-70
2021/04/21 12:13:53;;;;;;;8.18;3.45;;;24.20;33.60;;;;;;5021059;28;20108;-70
2021/04/21 12:16:24;;;;;;;4.03;2.97;;;24.10;33.50;;;;;;4975761;28;20050;-73
2021/04/21 12:18:52;;;;;;;;;;;23.30;33.80;;;;;;5028685;28;20042;-74
2021/04/21 12:21:17;;;;;;;6.35;3.45;;;24.20;34.90;;;;;;5017254;28;19909;-74
2021/04/21 12:24:04;;;;;;;6.45;3.80;;;24.50;33.10;;;;;;5022451;28;20648;-73
2021/04/21 12:26:32;;;;;;;7.82;3.33;;;25.40;31.80;;;;;;5024966;28;20017;-73
2021/04/21 12:29:00;;;;;;;6.55;3.42;;;24.20;30.00;;;;;;5027276;28;20025;-73
2021/04/21 12:31:27;;;;;;;5.13;3.40;;;23.60;33.30;;;;;;5025102;28;20025;-72
2021/04/21 12:33:55;;;;;;;7.20;3.40;;;24.10;31.80;;;;;;5020765;28;20026;-73
2021/04/21 12:36:26;;;;;;;6.57;3.28;;;25.30;32.10;;;;;;5025753;28;20033;-75
2021/04/21 12:39:00;;;;;;;5.90;3.55;;;26.00;34.10;;;;;;5022189;28;20056;-72
2021/04/21 12:41:26;;;;;;;8.98;3.22;;;25.90;30.40;;;;;;5023724;28;20496;-68
2021/04/21 12:43:52;;;;;;;6.50;3.50;;;26.30;31.20;;;;;;5024248;28;20033;-69
2021/04/21 12:46:20;;;;;;;4.88;3.60;;;25.80;31.90;;;;;;5011912;28;20477;-73
2021/04/21 12:48:56;;;;;;;8.38;3.95;;;26.10;29.80;;;;;;5019859;28;20400;-74
2021/04/21 12:51:31;;;;;;;5.13;2.92;;;26.60;29.60;;;;;;5016232;28;20038;-73
2021/04/21 12:54:01;;;;;;;6.20;3.42;;;27.30;31.30;;;;;;5024597;28;20109;-72
2021/04/21 12:56:38;;;;;;;5.22;3.95;;;27.30;29.50;;;;;;5023314;28;20130;-73
2021/04/21 12:59:14;;;;;;;9.30;4.10;;;27.40;30.30;;;;;;5021903;28;20143;-75
2021/04/21 13:01:39;;;;;;;7.22;3.80;;;28.00;30.60;;;;;;5024829;28;20072;-75
2021/04/21 13:04:05;;;;;;;5.68;3.30;;;28.20;31.00;;;;;;5027548;28;20436;-75
2021/04/21 13:06:39;;;;;;;6.80;3.33;;;28.20;30.10;;;;;;5025600;28;20021;-78
2021/04/21 13:09:10;;;;;;;4.28;3.35;;;28.30;33.30;;;;;;5020170;28;20044;-75
2021/04/21 13:11:36;;;;;;;9.13;3.63;;;27.20;30.20;;;;;;5019751;28;20044;-73
2021/04/21 13:14:03;;;;;;;5.22;3.60;;;25.70;28.90;;;;;;5026235;28;20527;-73
2021/04/21 13:16:31;;;;;;;11.00;3.22;;;25.20;29.60;;;;;;5025529;28;20041;-73
2021/04/21 13:18:57;;;;;;;6.38;2.90;;;25.00;31.20;;;;;;5018214;28;20065;-73
2021/04/21 13:21:23;;;;;;;6.15;3.35;;;25.70;30.90;;;;;;5020468;28;20473;-73
2021/04/21 13:23:57;;;;;;;7.90;3.67;;;25.30;30.50;;;;;;5019326;28;20033;-74